createdAt,value
2018-07-08T00:00:31.865Z,16.05
2018-07-08T00:01:31.826Z,15.92
2018-07-08T00:02:32.045Z,16.00
2018-07-08T00:03:31.731Z,15.96
2018-07-08T00:04:31.850Z,15.97
2018-07-08T00:05:31.808Z,16.02
2018-07-08T00:06:32.501Z,15.97
2018-07-08T00:07:31.728Z,16.04
2018-07-08T00:08:31.824Z,16.07
2018-07-08T00:09:31.990Z,15.97
2018-07-08T00:10:31.783Z,16.04
2018-07-08T00:11:32.014Z,15.94
2018-07-08T00:12:31.822Z,15.84
2018-07-08T00:13:31.890Z,15.87
2018-07-08T00:14:31.921Z,15.74
2018-07-08T00:15:31.784Z,15.84
2018-07-08T00:16:31.838Z,15.80
2018-07-08T00:17:31.798Z,15.71
2018-07-08T00:18:31.823Z,15.84
2018-07-08T00:19:32.118Z,15.82
2018-07-08T00:20:31.770Z,15.78
2018-07-08T00:21:31.736Z,15.84
2018-07-08T00:22:31.769Z,15.75
2018-07-08T00:23:31.850Z,15.83
2018-07-08T00:24:31.774Z,15.71
2018-07-08T00:25:31.866Z,15.80
2018-07-08T00:26:31.836Z,15.78
2018-07-08T00:27:31.838Z,15.78
2018-07-08T00:28:31.950Z,15.76
2018-07-08T00:29:31.817Z,15.87
2018-07-08T00:30:31.891Z,15.80
2018-07-08T00:31:31.834Z,15.75
2018-07-08T00:32:31.913Z,15.68
2018-07-08T00:33:31.876Z,15.72
2018-07-08T00:34:31.819Z,15.60
2018-07-08T00:35:31.790Z,15.64
2018-07-08T00:36:31.932Z,15.62
2018-07-08T00:37:31.905Z,15.65
2018-07-08T00:38:31.857Z,15.57
2018-07-08T00:39:32.088Z,15.75
2018-07-08T00:40:31.976Z,15.78
2018-07-08T00:41:31.837Z,15.74
2018-07-08T00:42:32.487Z,15.65
2018-07-08T00:43:31.863Z,15.62
2018-07-08T00:44:31.845Z,15.64
2018-07-08T00:45:31.870Z,15.60
2018-07-08T00:46:31.879Z,15.64
2018-07-08T00:47:32.767Z,15.62
2018-07-08T00:48:31.901Z,15.60
2018-07-08T00:49:31.744Z,15.56
2018-07-08T00:50:31.975Z,15.54
2018-07-08T00:51:31.956Z,15.59
2018-07-08T00:52:31.846Z,15.59
2018-07-08T00:53:31.927Z,15.53
2018-07-08T00:54:31.987Z,15.57
2018-07-08T00:55:31.894Z,15.64
2018-07-08T00:56:32.064Z,15.46
2018-07-08T00:57:31.964Z,15.49
2018-07-08T00:58:31.904Z,15.46
2018-07-08T00:59:31.985Z,15.47
2018-07-08T01:00:31.844Z,15.57
2018-07-08T01:01:31.929Z,15.44
2018-07-08T01:02:31.944Z,15.53
2018-07-08T01:03:31.982Z,15.50
2018-07-08T01:04:32.046Z,15.46
2018-07-08T01:05:31.886Z,15.43
2018-07-08T01:06:32.031Z,15.43
2018-07-08T01:07:31.888Z,15.43
2018-07-08T01:08:32.010Z,15.41
2018-07-08T01:09:31.877Z,15.43
2018-07-08T01:10:32.065Z,15.29
2018-07-08T01:11:32.048Z,15.36
2018-07-08T01:12:32.964Z,15.38
2018-07-08T01:13:31.839Z,15.28
2018-07-08T01:14:32.026Z,15.28
2018-07-08T01:15:32.178Z,15.23
2018-07-08T01:16:32.053Z,15.07
2018-07-08T01:17:31.944Z,15.19
2018-07-08T01:18:32.776Z,15.27
2018-07-08T01:19:31.910Z,15.32
2018-07-08T01:20:31.921Z,15.29
2018-07-08T01:21:32.160Z,15.31
2018-07-08T01:22:32.000Z,15.32
2018-07-08T01:23:31.863Z,15.31
2018-07-08T01:24:31.857Z,15.31
2018-07-08T01:25:31.861Z,15.28
2018-07-08T01:26:31.934Z,15.27
2018-07-08T01:27:31.876Z,15.17
2018-07-08T01:28:31.902Z,15.17
2018-07-08T01:29:31.862Z,15.03
2018-07-08T01:30:31.888Z,15.13
2018-07-08T01:31:31.953Z,15.09
2018-07-08T01:32:31.931Z,15.10
2018-07-08T01:33:31.878Z,15.09
2018-07-08T01:34:31.933Z,15.06
2018-07-08T01:35:31.868Z,15.14
2018-07-08T01:36:31.869Z,15.06
2018-07-08T01:37:31.908Z,15.01
2018-07-08T01:38:31.968Z,14.99
2018-07-08T01:39:31.957Z,14.98
2018-07-08T01:40:31.912Z,14.96
2018-07-08T01:41:31.989Z,14.94
2018-07-08T01:42:31.912Z,14.94
2018-07-08T01:43:31.970Z,14.95
2018-07-08T01:44:31.964Z,14.94
2018-07-08T01:45:31.916Z,14.95
2018-07-08T01:46:31.938Z,15.02
2018-07-08T01:47:31.991Z,14.84
2018-07-08T01:48:31.945Z,14.88
2018-07-08T01:49:31.925Z,14.89
2018-07-08T01:50:31.900Z,14.92
2018-07-08T01:51:31.966Z,14.95
2018-07-08T01:52:31.970Z,14.96
2018-07-08T01:53:31.904Z,14.78
2018-07-08T01:54:31.968Z,14.86
2018-07-08T01:55:31.959Z,14.86
2018-07-08T01:56:31.998Z,14.78
2018-07-08T01:57:32.010Z,14.78
2018-07-08T01:58:31.942Z,14.80
2018-07-08T01:59:31.958Z,14.94
2018-07-08T02:00:31.975Z,14.89
2018-07-08T02:01:32.015Z,14.84
2018-07-08T02:02:32.216Z,14.83
2018-07-08T02:03:32.051Z,14.86
2018-07-08T02:04:32.093Z,14.70
2018-07-08T02:05:32.145Z,14.78
2018-07-08T02:06:32.200Z,14.69
2018-07-08T02:07:32.165Z,14.68
2018-07-08T02:08:32.238Z,14.73
2018-07-08T02:09:32.167Z,14.70
2018-07-08T02:10:32.112Z,14.62
2018-07-08T02:11:32.135Z,14.70
2018-07-08T02:12:32.117Z,14.61
2018-07-08T02:13:32.126Z,14.62
2018-07-08T02:14:32.114Z,14.64
2018-07-08T02:15:32.206Z,14.61
2018-07-08T02:16:32.191Z,14.60
2018-07-08T02:17:32.119Z,14.65
2018-07-08T02:18:32.250Z,14.55
2018-07-08T02:19:32.199Z,14.58
2018-07-08T02:20:32.283Z,14.52
2018-07-08T02:21:32.158Z,14.52
2018-07-08T02:22:32.085Z,14.57
2018-07-08T02:23:32.199Z,14.52
2018-07-08T02:24:31.988Z,14.46
2018-07-08T02:25:32.154Z,14.47
2018-07-08T02:26:32.188Z,14.39
2018-07-08T02:27:32.236Z,14.43
2018-07-08T02:28:32.124Z,14.42
2018-07-08T02:29:32.214Z,14.43
2018-07-08T02:30:32.069Z,14.39
2018-07-08T02:31:32.255Z,14.46
2018-07-08T02:32:32.195Z,14.40
2018-07-08T02:33:32.148Z,14.40
2018-07-08T02:34:32.323Z,14.39
2018-07-08T02:35:32.803Z,14.40
2018-07-08T02:36:32.112Z,14.36
2018-07-08T02:37:32.217Z,14.37
2018-07-08T02:38:32.318Z,14.45
2018-07-08T02:39:32.371Z,14.45
2018-07-08T02:40:32.045Z,14.28
2018-07-08T02:41:32.126Z,14.42
2018-07-08T02:42:32.166Z,14.45
2018-07-08T02:43:32.326Z,14.28
2018-07-08T02:44:32.150Z,14.32
2018-07-08T02:45:32.133Z,14.22
2018-07-08T02:46:32.195Z,14.33
2018-07-08T02:47:32.753Z,14.32
2018-07-08T02:48:32.043Z,14.33
2018-07-08T02:49:32.104Z,14.37
2018-07-08T02:50:32.133Z,14.32
2018-07-08T02:51:32.977Z,14.22
2018-07-08T02:52:32.147Z,14.12
2018-07-08T02:53:32.179Z,14.27
2018-07-08T02:54:32.165Z,14.18
2018-07-08T02:55:32.172Z,14.21
2018-07-08T02:56:32.305Z,14.12
2018-07-08T02:57:32.165Z,14.03
2018-07-08T02:58:32.222Z,14.07
2018-07-08T02:59:32.160Z,14.12
2018-07-08T03:00:32.138Z,14.17
2018-07-08T03:01:32.213Z,14.02
2018-07-08T03:02:32.247Z,14.06
2018-07-08T03:03:32.180Z,14.03
2018-07-08T03:04:32.278Z,14.02
2018-07-08T03:05:32.142Z,14.06
2018-07-08T03:06:32.280Z,14.17
2018-07-08T03:07:32.286Z,14.17
2018-07-08T03:08:32.129Z,14.21
2018-07-08T03:09:32.275Z,14.33
2018-07-08T03:10:32.179Z,14.28
2018-07-08T03:11:32.170Z,14.25
2018-07-08T03:12:32.282Z,14.25
2018-07-08T03:13:32.245Z,14.25
2018-07-08T03:14:32.230Z,14.20
2018-07-08T03:15:32.395Z,14.22
2018-07-08T03:16:32.495Z,14.28
2018-07-08T03:17:32.320Z,14.28
2018-07-08T03:18:32.255Z,14.20
2018-07-08T03:19:32.987Z,14.32
2018-07-08T03:20:32.240Z,14.25
2018-07-08T03:21:32.305Z,14.27
2018-07-08T03:22:32.520Z,14.21
2018-07-08T03:23:32.313Z,14.20
2018-07-08T03:24:32.374Z,14.14
2018-07-08T03:25:32.335Z,14.21
2018-07-08T03:26:32.275Z,14.18
2018-07-08T03:27:32.450Z,14.25
2018-07-08T03:28:32.330Z,14.15
2018-07-08T03:29:32.385Z,14.17
2018-07-08T03:30:32.789Z,14.18
2018-07-08T03:31:32.366Z,14.21
2018-07-08T03:32:32.409Z,14.15
2018-07-08T03:33:32.361Z,14.14
2018-07-08T03:34:32.376Z,14.18
2018-07-08T03:35:32.249Z,14.15
2018-07-08T03:36:32.441Z,14.18
2018-07-08T03:37:32.282Z,14.24
2018-07-08T03:38:32.207Z,14.24
2018-07-08T03:39:32.339Z,14.27
2018-07-08T03:40:32.490Z,14.33
2018-07-08T03:41:32.382Z,14.28
2018-07-08T03:42:32.286Z,14.32
2018-07-08T03:43:32.345Z,14.33
2018-07-08T03:44:32.345Z,14.33
2018-07-08T03:45:32.354Z,14.33
2018-07-08T03:46:32.518Z,14.33
2018-07-08T03:47:32.373Z,14.37
2018-07-08T03:48:32.303Z,14.28
2018-07-08T03:49:32.275Z,14.33
2018-07-08T03:50:32.335Z,14.35
2018-07-08T03:51:32.361Z,14.36
2018-07-08T03:52:32.417Z,14.47
2018-07-08T03:53:32.436Z,14.42
2018-07-08T03:54:32.356Z,14.42
2018-07-08T03:55:32.287Z,14.46
2018-07-08T03:56:32.388Z,14.39
2018-07-08T03:57:32.349Z,14.57
2018-07-08T03:58:32.505Z,14.46
2018-07-08T03:59:32.308Z,14.42
2018-07-08T04:00:32.384Z,14.40
2018-07-08T04:01:32.320Z,14.43
2018-07-08T04:02:32.333Z,14.46
2018-07-08T04:03:32.384Z,14.51
2018-07-08T04:04:32.473Z,14.50
2018-07-08T04:05:32.444Z,14.58
2018-07-08T04:06:32.345Z,14.50
2018-07-08T04:07:32.403Z,14.50
2018-07-08T04:08:32.342Z,14.46
2018-07-08T04:09:32.394Z,14.42
2018-07-08T04:10:32.346Z,14.55
2018-07-08T04:11:32.266Z,14.55
2018-07-08T04:12:32.460Z,14.65
2018-07-08T04:13:32.830Z,14.60
2018-07-08T04:14:32.431Z,14.61
2018-07-08T04:15:32.396Z,14.60
2018-07-08T04:16:32.448Z,14.62
2018-07-08T04:17:32.327Z,14.68
2018-07-08T04:18:32.540Z,14.64
2018-07-08T04:19:32.526Z,14.70
2018-07-08T04:20:32.305Z,14.62
2018-07-08T04:21:32.426Z,14.69
2018-07-08T04:22:32.398Z,14.64
2018-07-08T04:23:32.485Z,14.60
2018-07-08T04:24:32.350Z,14.69
2018-07-08T04:25:32.519Z,14.65
2018-07-08T04:26:32.428Z,14.62
2018-07-08T04:27:32.592Z,14.69
2018-07-08T04:28:32.583Z,14.75
2018-07-08T04:29:32.433Z,14.70
2018-07-08T04:30:32.425Z,14.69
2018-07-08T04:31:32.439Z,14.62
2018-07-08T04:32:32.508Z,14.91
2018-07-08T04:33:32.870Z,14.81
2018-07-08T04:34:32.399Z,14.81
2018-07-08T04:35:32.420Z,14.81
2018-07-08T04:36:32.462Z,14.83
2018-07-08T04:37:32.478Z,14.91
2018-07-08T04:38:32.374Z,14.83
2018-07-08T04:39:32.500Z,14.84
2018-07-08T04:40:32.458Z,14.78
2018-07-08T04:41:32.500Z,14.88
2018-07-08T04:42:32.332Z,14.95
2018-07-08T04:43:32.473Z,14.99
2018-07-08T04:44:32.422Z,14.99
2018-07-08T04:45:33.245Z,14.96
2018-07-08T04:46:32.408Z,15.11
2018-07-08T04:47:32.517Z,15.10
2018-07-08T04:48:32.467Z,15.21
2018-07-08T04:49:32.500Z,15.23
2018-07-08T04:50:32.595Z,15.09
2018-07-08T04:51:32.532Z,15.13
2018-07-08T04:52:32.521Z,15.17
2018-07-08T04:53:32.516Z,15.20
2018-07-08T04:54:32.488Z,15.21
2018-07-08T04:55:32.493Z,15.32
2018-07-08T04:56:32.406Z,15.32
2018-07-08T04:57:32.476Z,15.31
2018-07-08T04:58:32.385Z,15.32
2018-07-08T04:59:32.599Z,15.39
2018-07-08T05:00:32.479Z,15.35
2018-07-08T05:01:33.061Z,15.46
2018-07-08T05:02:32.360Z,15.43
2018-07-08T05:03:32.408Z,15.50
2018-07-08T05:04:32.420Z,15.57
2018-07-08T05:05:32.415Z,15.64
2018-07-08T05:06:32.393Z,15.64
2018-07-08T05:07:32.403Z,15.71
2018-07-08T05:08:32.515Z,15.82
2018-07-08T05:09:32.548Z,15.80
2018-07-08T05:10:32.397Z,15.72
2018-07-08T05:11:32.497Z,15.84
2018-07-08T05:12:32.529Z,15.84
2018-07-08T05:13:32.476Z,16.01
2018-07-08T05:14:32.559Z,16.28
2018-07-08T05:15:32.553Z,16.91
2018-07-08T05:16:32.574Z,17.93
2018-07-08T05:17:32.560Z,19.28
2018-07-08T05:18:32.605Z,20.42
2018-07-08T05:19:32.548Z,21.22
2018-07-08T05:20:32.642Z,21.71
2018-07-08T05:21:32.486Z,22.30
2018-07-08T05:22:32.515Z,22.14
2018-07-08T05:23:32.592Z,22.70
2018-07-08T05:24:32.554Z,23.31
2018-07-08T05:25:33.407Z,23.04
2018-07-08T05:26:32.600Z,23.28
2018-07-08T05:27:32.589Z,23.38
2018-07-08T05:28:32.545Z,23.51
2018-07-08T05:29:32.545Z,23.95
2018-07-08T05:30:32.760Z,24.21
2018-07-08T05:31:32.549Z,24.03
2018-07-08T05:32:32.525Z,23.60
2018-07-08T05:33:32.554Z,23.90
2018-07-08T05:34:32.737Z,24.30
2018-07-08T05:35:32.708Z,24.15
2018-07-08T05:36:32.520Z,23.91
2018-07-08T05:37:32.570Z,23.05
2018-07-08T05:38:32.585Z,23.13
2018-07-08T05:39:32.637Z,23.22
2018-07-08T05:40:32.640Z,23.58
2018-07-08T05:41:32.723Z,23.98
2018-07-08T05:42:32.672Z,24.27
2018-07-08T05:43:32.561Z,24.65
2018-07-08T05:44:32.654Z,24.73
2018-07-08T05:45:37.386Z,24.76
2018-07-08T05:46:32.499Z,24.53
2018-07-08T05:47:32.646Z,24.85
2018-07-08T05:48:32.691Z,25.33
2018-07-08T05:49:32.708Z,25.61
2018-07-08T05:50:32.653Z,25.97
2018-07-08T05:51:32.750Z,25.97
2018-07-08T05:52:32.618Z,25.98
2018-07-08T05:53:32.717Z,25.64
2018-07-08T05:54:32.660Z,25.97
2018-07-08T05:55:32.647Z,26.55
2018-07-08T05:56:32.571Z,26.17
2018-07-08T05:57:32.641Z,26.55
2018-07-08T05:58:32.545Z,26.89
2018-07-08T05:59:32.696Z,27.18
2018-07-08T06:00:32.666Z,27.50
2018-07-08T06:01:32.936Z,27.17
2018-07-08T06:02:32.656Z,27.03
2018-07-08T06:03:32.748Z,27.12
2018-07-08T06:04:32.686Z,26.21
2018-07-08T06:05:32.711Z,26.66
2018-07-08T06:06:32.752Z,26.45
2018-07-08T06:07:32.729Z,26.35
2018-07-08T06:08:32.706Z,26.51
2018-07-08T06:09:32.813Z,25.13
2018-07-08T06:10:32.757Z,25.50
2018-07-08T06:11:32.804Z,25.95
2018-07-08T06:12:32.790Z,26.54
2018-07-08T06:13:32.724Z,26.80
2018-07-08T06:14:32.891Z,27.09
2018-07-08T06:15:33.036Z,27.09
2018-07-08T06:16:32.805Z,26.33
2018-07-08T06:17:32.797Z,26.55
2018-07-08T06:18:32.995Z,26.36
2018-07-08T06:19:32.843Z,26.37
2018-07-08T06:20:32.934Z,25.91
2018-07-08T06:21:32.820Z,26.06
2018-07-08T06:22:32.909Z,25.82
2018-07-08T06:23:32.985Z,24.84
2018-07-08T06:24:32.987Z,24.21
2018-07-08T06:25:32.896Z,24.78
2018-07-08T06:26:32.897Z,25.32
2018-07-08T06:27:32.975Z,25.69
2018-07-08T06:28:32.943Z,25.87
2018-07-08T06:29:32.965Z,25.75
2018-07-08T06:30:33.016Z,26.15
2018-07-08T06:31:33.207Z,25.94
2018-07-08T06:32:32.927Z,25.05
2018-07-08T06:33:33.067Z,25.45
2018-07-08T06:34:33.142Z,26.26
2018-07-08T06:35:33.014Z,26.52
2018-07-08T06:36:33.197Z,26.73
2018-07-08T06:37:33.127Z,26.76
2018-07-08T06:38:33.233Z,27.57
2018-07-08T06:39:33.137Z,27.85
2018-07-08T06:40:33.039Z,28.55
2018-07-08T06:41:33.052Z,28.22
2018-07-08T06:42:33.222Z,28.48
2018-07-08T06:43:33.307Z,27.84
2018-07-08T06:44:33.016Z,27.85
2018-07-08T06:45:33.131Z,27.88
2018-07-08T06:46:33.153Z,28.29
2018-07-08T06:47:33.154Z,28.36
2018-07-08T06:48:33.169Z,28.49
2018-07-08T06:49:33.259Z,28.58
2018-07-08T06:50:33.233Z,28.46
2018-07-08T06:51:33.231Z,27.75
2018-07-08T06:52:34.168Z,27.60
2018-07-08T06:53:33.290Z,28.00
2018-07-08T06:54:33.351Z,28.19
2018-07-08T06:55:34.493Z,28.09
2018-07-08T06:56:35.235Z,28.30
2018-07-08T06:57:33.088Z,28.76
2018-07-08T06:58:33.285Z,29.15
2018-07-08T06:59:33.330Z,29.37
2018-07-08T07:00:35.321Z,29.61
2018-07-08T07:01:33.470Z,29.64
2018-07-08T07:02:33.708Z,28.85
2018-07-08T07:03:33.275Z,28.12
2018-07-08T07:04:33.344Z,28.93
2018-07-08T07:05:34.064Z,28.62
2018-07-08T07:06:33.625Z,28.51
2018-07-08T07:07:33.503Z,28.86
2018-07-08T07:09:33.336Z,29.41
2018-07-08T07:10:33.379Z,29.34
2018-07-08T07:11:33.456Z,28.93
2018-07-08T07:12:33.482Z,28.73
2018-07-08T07:13:33.472Z,28.51
2018-07-08T07:14:33.391Z,28.48
2018-07-08T07:15:33.560Z,29.09
2018-07-08T07:16:33.590Z,28.96
2018-07-08T07:17:33.634Z,28.30
2018-07-08T07:18:33.628Z,27.62
2018-07-08T07:19:33.767Z,27.57
2018-07-08T07:20:33.679Z,27.92
2018-07-08T07:21:33.732Z,28.61
2018-07-08T07:22:33.931Z,28.46
2018-07-08T07:23:33.796Z,28.48
2018-07-08T07:24:34.256Z,28.48
2018-07-08T07:25:33.589Z,28.68
2018-07-08T07:26:33.603Z,29.11
2018-07-08T07:27:34.682Z,29.55
2018-07-08T07:28:33.766Z,29.55
2018-07-08T07:29:33.996Z,30.07
2018-07-08T07:30:33.840Z,30.20
2018-07-08T07:31:33.668Z,30.02
2018-07-08T07:32:33.982Z,30.43
2018-07-08T07:33:34.036Z,30.64
2018-07-08T07:34:34.009Z,29.58
2018-07-08T07:35:33.958Z,29.30
2018-07-08T07:36:33.897Z,29.71
2018-07-08T07:37:34.491Z,29.85
2018-07-08T07:38:34.248Z,29.92
2018-07-08T07:39:34.045Z,29.60
2018-07-08T07:40:33.947Z,29.39
2018-07-08T07:41:34.154Z,28.56
2018-07-08T07:42:33.801Z,29.02
2018-07-08T07:43:34.231Z,29.55
2018-07-08T07:44:34.723Z,29.76
2018-07-08T07:45:34.227Z,29.95
2018-07-08T07:46:33.759Z,30.32
2018-07-08T07:47:34.373Z,30.64
2018-07-08T07:48:35.197Z,30.53
2018-07-08T07:49:34.671Z,29.71
2018-07-08T07:50:34.130Z,29.98
2018-07-08T07:51:34.313Z,29.02
2018-07-08T07:52:34.001Z,28.71
2018-07-08T07:53:34.216Z,28.17
2018-07-08T07:54:34.249Z,28.29
2018-07-08T07:55:35.010Z,28.12
2018-07-08T07:56:35.252Z,28.40
2018-07-08T07:57:34.461Z,28.71
2018-07-08T07:58:34.318Z,28.85
2018-07-08T07:59:35.006Z,29.02
2018-07-08T08:00:34.960Z,29.52
2018-07-08T08:01:34.923Z,29.76
2018-07-08T08:02:34.427Z,29.92
2018-07-08T08:03:34.412Z,30.64
2018-07-08T08:04:34.275Z,30.55
2018-07-08T08:05:34.375Z,29.74
2018-07-08T08:06:34.262Z,29.57
2018-07-08T08:07:34.764Z,29.02
2018-07-08T08:08:35.043Z,29.16
2018-07-08T08:09:34.377Z,29.55
2018-07-08T08:10:34.723Z,29.37
2018-07-08T08:11:34.150Z,29.82
2018-07-08T08:12:34.200Z,30.24
2018-07-08T08:13:35.565Z,30.55
2018-07-08T08:14:35.347Z,30.47
2018-07-08T08:15:35.599Z,30.88
2018-07-08T08:16:34.588Z,30.99
2018-07-08T08:17:37.552Z,31.04
2018-07-08T08:18:35.182Z,30.07
2018-07-08T08:19:34.969Z,30.22
2018-07-08T08:20:35.254Z,30.82
2018-07-08T08:21:36.239Z,31.28
2018-07-08T08:22:35.599Z,30.35
2018-07-08T08:23:36.201Z,30.61
2018-07-08T08:24:35.287Z,30.16
2018-07-08T08:25:34.816Z,30.13
2018-07-08T08:26:36.879Z,30.22
2018-07-08T08:27:34.789Z,30.24
2018-07-08T08:28:35.722Z,30.80
2018-07-08T08:29:36.389Z,30.45
2018-07-08T08:30:38.668Z,30.72
2018-07-08T08:31:34.780Z,30.95
2018-07-08T08:32:35.033Z,30.79
2018-07-08T08:33:35.928Z,30.77
2018-07-08T08:34:35.496Z,31.17
2018-07-08T08:35:35.157Z,31.14
2018-07-08T08:36:35.766Z,30.97
2018-07-08T08:37:36.132Z,31.04
2018-07-08T08:38:35.552Z,30.80
2018-07-08T08:39:37.080Z,31.16
2018-07-08T08:40:35.495Z,31.57
2018-07-08T08:41:36.039Z,31.80
2018-07-08T08:42:35.492Z,31.68
2018-07-08T08:43:36.919Z,31.56
2018-07-08T08:44:35.553Z,31.14
2018-07-08T08:45:36.595Z,31.09
2018-07-08T08:46:41.298Z,30.61
2018-07-08T08:47:36.843Z,30.89
2018-07-08T08:48:35.567Z,31.66
2018-07-08T08:49:36.768Z,31.86
2018-07-08T08:50:37.600Z,32.19
2018-07-08T08:51:36.368Z,32.35
2018-07-08T08:52:44.089Z,31.36
2018-07-08T08:53:37.418Z,30.46
2018-07-08T08:54:34.992Z,30.20
2018-07-08T08:55:36.462Z,30.07
2018-07-08T08:56:35.952Z,30.69
2018-07-08T08:57:35.384Z,31.32
2018-07-08T08:58:36.088Z,31.75
2018-07-08T08:59:36.756Z,31.70
2018-07-08T09:00:36.131Z,32.03
2018-07-08T09:01:36.130Z,32.07
2018-07-08T09:02:37.032Z,32.25
2018-07-08T09:03:37.443Z,31.73
2018-07-08T09:04:37.230Z,30.64
2018-07-08T09:05:35.426Z,30.61
2018-07-08T09:06:50.565Z,30.37
2018-07-08T09:07:37.065Z,30.11
2018-07-08T09:08:38.015Z,30.51
2018-07-08T09:09:36.514Z,30.11
2018-07-08T09:10:36.177Z,29.71
2018-07-08T09:11:36.497Z,30.23
2018-07-08T09:12:38.384Z,30.23
2018-07-08T09:13:39.811Z,31.28
2018-07-08T09:14:37.148Z,31.31
2018-07-08T09:15:36.905Z,31.58
2018-07-08T09:16:36.845Z,31.62
2018-07-08T09:17:36.606Z,31.43
2018-07-08T09:18:37.301Z,31.09
2018-07-08T09:19:35.615Z,31.48
2018-07-08T09:20:37.760Z,31.57
2018-07-08T09:21:36.852Z,31.57
2018-07-08T09:22:37.072Z,31.21
2018-07-08T09:23:37.366Z,31.12
2018-07-08T09:24:36.220Z,31.47
2018-07-08T09:25:36.603Z,31.10
2018-07-08T09:26:37.644Z,31.04
2018-07-08T09:27:38.332Z,31.28
2018-07-08T09:28:38.370Z,31.29
2018-07-08T09:29:37.624Z,32.10
2018-07-08T09:30:35.788Z,32.26
2018-07-08T09:31:38.783Z,31.95
2018-07-08T09:32:38.077Z,31.92
2018-07-08T09:33:37.741Z,32.85
2018-07-08T09:34:37.909Z,33.50
2018-07-08T09:35:39.215Z,33.09
2018-07-08T09:36:39.316Z,32.70
2018-07-08T09:37:37.283Z,32.52
2018-07-08T09:38:38.047Z,32.66
2018-07-08T09:39:47.969Z,32.87
2018-07-08T09:40:36.433Z,32.75
2018-07-08T09:41:39.785Z,32.47
2018-07-08T09:42:35.825Z,32.00
2018-07-08T09:43:40.261Z,31.57
2018-07-08T09:44:44.121Z,31.13
2018-07-08T09:45:39.470Z,31.20
2018-07-08T09:46:37.641Z,30.94
2018-07-08T09:47:37.950Z,31.84
2018-07-08T09:48:38.152Z,31.78
2018-07-08T09:49:38.240Z,31.19
2018-07-08T09:50:38.388Z,30.97
2018-07-08T09:51:40.337Z,31.46
2018-07-08T09:52:37.734Z,31.76
2018-07-08T09:53:40.104Z,31.85
2018-07-08T09:54:38.327Z,31.39
2018-07-08T09:55:39.538Z,31.28
2018-07-08T09:56:43.333Z,31.21
2018-07-08T09:57:36.659Z,30.94
2018-07-08T09:58:39.298Z,31.02
2018-07-08T09:59:37.016Z,31.62
2018-07-08T10:00:38.352Z,32.10
2018-07-08T10:01:36.928Z,31.78
2018-07-08T10:02:36.306Z,32.59
2018-07-08T10:03:36.277Z,32.75
2018-07-08T10:04:37.569Z,32.75
2018-07-08T10:05:36.359Z,32.75
2018-07-08T10:06:38.313Z,32.96
2018-07-08T10:07:36.377Z,32.89
2018-07-08T10:08:36.456Z,33.07
2018-07-08T10:09:38.410Z,32.94
2018-07-08T10:10:37.034Z,32.06
2018-07-08T10:11:38.760Z,32.37
2018-07-08T10:12:37.063Z,32.66
2018-07-08T10:13:36.595Z,32.79
2018-07-08T10:14:36.609Z,32.07
2018-07-08T10:15:36.715Z,32.29
2018-07-08T10:16:37.524Z,32.70
2018-07-08T10:17:36.665Z,32.82
2018-07-08T10:18:38.837Z,32.65
2018-07-08T10:19:38.388Z,32.99
2018-07-08T10:20:36.879Z,33.04
2018-07-08T10:21:39.475Z,33.23
2018-07-08T10:22:37.527Z,32.77
2018-07-08T10:23:38.916Z,33.04
2018-07-08T10:24:39.283Z,32.82
2018-07-08T10:25:38.612Z,32.87
2018-07-08T10:26:38.357Z,32.30
2018-07-08T10:27:38.878Z,32.37
2018-07-08T10:28:36.909Z,32.57
2018-07-08T10:29:36.878Z,31.99
2018-07-08T10:30:39.797Z,32.30
2018-07-08T10:31:38.724Z,32.62
2018-07-08T10:32:39.888Z,32.94
2018-07-08T10:33:38.019Z,32.79
2018-07-08T10:34:40.377Z,31.95
2018-07-08T10:35:38.591Z,32.22
2018-07-08T10:36:39.392Z,32.63
2018-07-08T10:37:37.088Z,32.78
2018-07-08T10:38:38.632Z,32.79
2018-07-08T10:39:38.853Z,31.46
2018-07-08T10:40:38.049Z,31.16
2018-07-08T10:41:38.841Z,31.34
2018-07-08T10:42:37.717Z,31.16
2018-07-08T10:43:37.953Z,30.95
2018-07-08T10:44:37.593Z,30.89
2018-07-08T10:45:38.044Z,30.65
2018-07-08T10:46:37.835Z,30.64
2018-07-08T10:47:38.267Z,29.58
2018-07-08T10:48:37.298Z,29.52
2018-07-08T10:49:37.697Z,29.63
2018-07-08T10:50:37.915Z,29.71
2018-07-08T10:51:37.703Z,29.70
2018-07-08T10:52:38.348Z,29.41
2018-07-08T10:53:37.511Z,29.28
2018-07-08T10:54:38.238Z,28.95
2018-07-08T10:55:37.930Z,28.89
2018-07-08T10:56:38.514Z,28.56
2018-07-08T10:57:38.139Z,28.18
2018-07-08T10:58:39.138Z,27.93
2018-07-08T10:59:38.671Z,27.97
2018-07-08T11:00:39.211Z,28.00
2018-07-08T11:01:37.766Z,27.81
2018-07-08T11:02:37.889Z,27.87
2018-07-08T11:03:37.910Z,27.97
2018-07-08T11:04:38.739Z,28.39
2018-07-08T11:05:37.606Z,28.49
2018-07-08T11:06:39.058Z,28.36
2018-07-08T11:07:38.015Z,28.36
2018-07-08T11:08:39.077Z,27.87
2018-07-08T11:09:37.984Z,27.88
2018-07-08T11:10:38.001Z,27.93
2018-07-08T11:11:38.178Z,27.65
2018-07-08T11:12:37.794Z,27.85
2018-07-08T11:13:37.950Z,28.07
2018-07-08T11:14:38.170Z,28.07
2018-07-08T11:15:38.054Z,28.22
2018-07-08T11:16:38.878Z,28.36
2018-07-08T11:17:37.888Z,28.37
2018-07-08T11:18:38.263Z,28.29
2018-07-08T11:19:38.906Z,28.33
2018-07-08T11:20:38.250Z,28.40
2018-07-08T11:21:38.193Z,28.33
2018-07-08T11:22:38.078Z,28.37
2018-07-08T11:23:38.161Z,28.21
2018-07-08T11:24:38.182Z,28.02
2018-07-08T11:25:38.045Z,28.04
2018-07-08T11:26:38.146Z,27.69
2018-07-08T11:27:38.056Z,27.41
2018-07-08T11:28:37.879Z,27.44
2018-07-08T11:29:38.008Z,27.59
2018-07-08T11:30:38.104Z,27.72
2018-07-08T11:31:38.059Z,27.85
2018-07-08T11:32:38.232Z,27.82
2018-07-08T11:33:38.111Z,28.03
2018-07-08T11:34:38.575Z,28.12
2018-07-08T11:35:38.020Z,28.00
2018-07-08T11:36:38.121Z,28.06
2018-07-08T11:37:38.050Z,28.07
2018-07-08T11:38:38.348Z,28.17
2018-07-08T11:39:38.067Z,28.36
2018-07-08T11:40:38.196Z,28.61
2018-07-08T11:41:39.076Z,28.25
2018-07-08T11:42:38.258Z,28.12
2018-07-08T11:43:38.103Z,28.04
2018-07-08T11:44:38.584Z,28.30
2018-07-08T11:45:38.222Z,28.43
2018-07-08T11:46:38.144Z,28.54
2018-07-08T11:49:10.055Z,28.52
2018-07-08T11:50:10.013Z,28.48
2018-07-08T11:51:10.026Z,28.27
2018-07-08T11:52:10.022Z,28.19
2018-07-08T11:53:10.096Z,28.31
2018-07-08T11:54:10.061Z,28.52
2018-07-08T11:55:10.073Z,28.49
2018-07-08T11:56:10.250Z,28.25
2018-07-08T11:57:10.079Z,28.29
2018-07-08T11:58:10.067Z,28.46
2018-07-08T11:59:10.096Z,28.62
2018-07-08T12:00:10.105Z,28.62
2018-07-08T12:01:10.101Z,28.85
2018-07-08T12:02:10.103Z,28.54
2018-07-08T12:03:10.116Z,28.55
2018-07-08T12:04:10.128Z,28.44
2018-07-08T12:05:10.175Z,28.48
2018-07-08T12:06:10.153Z,28.30
2018-07-08T12:07:10.168Z,28.49
2018-07-08T12:08:10.161Z,28.31
2018-07-08T12:09:10.159Z,28.24
2018-07-08T12:10:10.176Z,28.22
2018-07-08T12:11:10.183Z,28.36
2018-07-08T12:12:10.185Z,28.48
2018-07-08T12:13:10.212Z,28.51
2018-07-08T12:14:10.213Z,28.58
2018-07-08T12:15:10.209Z,28.40
2018-07-08T12:16:10.234Z,28.34
2018-07-08T12:17:10.243Z,27.85
2018-07-08T12:18:10.254Z,27.84
2018-07-08T12:19:10.249Z,27.82
2018-07-08T12:20:10.255Z,28.03
2018-07-08T12:21:10.298Z,28.02
2018-07-08T12:22:10.270Z,28.11
2018-07-08T12:23:10.288Z,28.29
2018-07-08T12:24:10.280Z,28.37
2018-07-08T12:25:10.323Z,27.96
2018-07-08T12:26:10.304Z,28.04
2018-07-08T12:27:10.307Z,28.15
2018-07-08T12:28:10.314Z,28.22
2018-07-08T12:29:13.124Z,28.14
2018-07-08T12:30:10.328Z,28.02
2018-07-08T12:31:10.346Z,28.09
2018-07-08T12:32:10.373Z,27.90
2018-07-08T12:33:10.341Z,27.94
2018-07-08T12:34:10.352Z,27.96
2018-07-08T12:35:10.360Z,27.92
2018-07-08T12:36:10.370Z,27.96
2018-07-08T12:37:10.384Z,27.92
2018-07-08T12:38:10.391Z,27.84
2018-07-08T12:39:11.078Z,27.82
2018-07-08T12:40:10.398Z,27.78
2018-07-08T12:41:10.445Z,27.78
2018-07-08T12:42:10.432Z,27.92
2018-07-08T12:43:10.487Z,27.93
2018-07-08T12:44:10.487Z,27.72
2018-07-08T12:45:10.434Z,27.77
2018-07-08T12:46:10.454Z,27.75
2018-07-08T12:47:10.471Z,27.62
2018-07-08T12:48:10.467Z,27.75
2018-07-08T12:49:10.469Z,27.75
2018-07-08T12:50:10.522Z,27.70
2018-07-08T12:51:10.518Z,27.59
2018-07-08T12:52:10.595Z,27.49
2018-07-08T12:53:10.496Z,27.44
2018-07-08T12:54:10.542Z,27.49
2018-07-08T12:55:10.520Z,27.46